sensor_id;sensor_type;location;lat;lon;timestamp;P1;P2;P0
78408;PMS5003;67697;50.750;-3.270;2023-12-14T00:02:08;14;13;
78408;PMS5003;67697;50.750;-3.270;2023-12-14T00:04:34;13;9;
78408;PMS5003;67697;50.750;-3.270;2023-12-14T00:07:00;9;8;
78408;PMS5003;67697;50.750;-3.270;2023-12-14T00:09:25;9;9;
78408;PMS5003;67697;50.750;-3.270;2023-12-14T00:11:51;8;8;
78408;PMS5003;67697;50.750;-3.270;2023-12-14T00:14:16;13;10;
78408;PMS5003;67697;50.750;-3.270;2023-12-14T00:16:42;13;9;
78408;PMS5003;67697;50.750;-3.270;2023-12-14T00:19:08;6;5;
78408;PMS5003;67697;50.750;-3.270;2023-12-14T00:21:33;6;6;
78408;PMS5003;67697;50.750;-3.270;2023-12-14T00:23:59;8;8;
78408;PMS5003;67697;50.750;-3.270;2023-12-14T00:26:25;13;10;
78408;PMS5003;67697;50.750;-3.270;2023-12-14T00:28:51;8;8;
78408;PMS5003;67697;50.750;-3.270;2023-12-14T00:31:16;5;5;
78408;PMS5003;67697;50.750;-3.270;2023-12-14T00:33:41;6;6;
78408;PMS5003;67697;50.750;-3.270;2023-12-14T00:36:07;13;12;
78408;PMS5003;67697;50.750;-3.270;2023-12-14T00:38:32;14;12;
78408;PMS5003;67697;50.750;-3.270;2023-12-14T00:40:57;9;7;
78408;PMS5003;67697;50.750;-3.270;2023-12-14T00:43:23;6;6;
78408;PMS5003;67697;50.750;-3.270;2023-12-14T00:45:49;7;7;
78408;PMS5003;67697;50.750;-3.270;2023-12-14T00:48:15;6;5;
78408;PMS5003;67697;50.750;-3.270;2023-12-14T00:50:40;5;5;
78408;PMS5003;67697;50.750;-3.270;2023-12-14T00:53:06;6;6;
78408;PMS5003;67697;50.750;-3.270;2023-12-14T00:55:32;7;6;
78408;PMS5003;67697;50.750;-3.270;2023-12-14T00:57:57;9;6;
78408;PMS5003;67697;50.750;-3.270;2023-12-14T01:00:23;3;3;
78408;PMS5003;67697;50.750;-3.270;2023-12-14T01:02:49;5;5;
78408;PMS5003;67697;50.750;-3.270;2023-12-14T01:05:15;9;7;
78408;PMS5003;67697;50.750;-3.270;2023-12-14T01:07:40;7;6;
78408;PMS5003;67697;50.750;-3.270;2023-12-14T01:10:07;9;8;
78408;PMS5003;67697;50.750;-3.270;2023-12-14T01:12:32;8;5;
78408;PMS5003;67697;50.750;-3.270;2023-12-14T01:14:58;10;9;
78408;PMS5003;67697;50.750;-3.270;2023-12-14T01:17:23;5;5;
78408;PMS5003;67697;50.750;-3.270;2023-12-14T01:19:48;9;9;
78408;PMS5003;67697;50.750;-3.270;2023-12-14T01:22:14;6;3;
78408;PMS5003;67697;50.750;-3.270;2023-12-14T01:24:40;5;3;
78408;PMS5003;67697;50.750;-3.270;2023-12-14T01:27:06;3;3;
78408;PMS5003;67697;50.750;-3.270;2023-12-14T01:29:32;3;3;
78408;PMS5003;67697;50.750;-3.270;2023-12-14T01:31:57;3;3;
78408;PMS5003;67697;50.750;-3.270;2023-12-14T01:34:23;5;5;
78408;PMS5003;67697;50.750;-3.270;2023-12-14T01:36:49;3;3;
78408;PMS5003;67697;50.750;-3.270;2023-12-14T01:39:15;5;5;
78408;PMS5003;67697;50.750;-3.270;2023-12-14T01:41:41;5;5;
78408;PMS5003;67697;50.750;-3.270;2023-12-14T01:44:06;6;6;
78408;PMS5003;67697;50.750;-3.270;2023-12-14T01:46:32;7;3;
78408;PMS5003;67697;50.750;-3.270;2023-12-14T01:48:58;10;7;
78408;PMS5003;67697;50.750;-3.270;2023-12-14T01:51:24;10;8;
78408;PMS5003;67697;50.750;-3.270;2023-12-14T01:53:50;8;8;
78408;PMS5003;67697;50.750;-3.270;2023-12-14T01:56:15;6;6;
78408;PMS5003;67697;50.750;-3.270;2023-12-14T01:58:41;9;6;
78408;PMS5003;67697;50.750;-3.270;2023-12-14T02:01:08;6;5;
78408;PMS5003;67697;50.750;-3.270;2023-12-14T02:03:33;6;6;
78408;PMS5003;67697;50.750;-3.270;2023-12-14T02:05:58;7;7;
78408;PMS5003;67697;50.750;-3.270;2023-12-14T02:08:24;9;6;
78408;PMS5003;67697;50.750;-3.270;2023-12-14T02:10:50;7;6;
78408;PMS5003;67697;50.750;-3.270;2023-12-14T02:13:16;9;7;
78408;PMS5003;67697;50.750;-3.270;2023-12-14T02:15:42;7;6;
78408;PMS5003;67697;50.750;-3.270;2023-12-14T02:18:07;6;6;
78408;PMS5003;67697;50.750;-3.270;2023-12-14T02:20:33;9;6;
78408;PMS5003;67697;50.750;-3.270;2023-12-14T02:22:59;7;7;
78408;PMS5003;67697;50.750;-3.270;2023-12-14T02:25:24;6;6;
78408;PMS5003;67697;50.750;-3.270;2023-12-14T02:27:50;10;9;
78408;PMS5003;67697;50.750;-3.270;2023-12-14T02:30:16;9;6;
78408;PMS5003;67697;50.750;-3.270;2023-12-14T02:32:42;6;5;
78408;PMS5003;67697;50.750;-3.270;2023-12-14T02:35:08;5;5;
78408;PMS5003;67697;50.750;-3.270;2023-12-14T02:37:34;15;9;
78408;PMS5003;67697;50.750;-3.270;2023-12-14T02:39:59;13;10;
78408;PMS5003;67697;50.750;-3.270;2023-12-14T02:42:25;10;7;
78408;PMS5003;67697;50.750;-3.270;2023-12-14T02:44:51;10;9;
78408;PMS5003;67697;50.750;-3.270;2023-12-14T02:47:16;6;6;
78408;PMS5003;67697;50.750;-3.270;2023-12-14T02:49:43;6;6;
78408;PMS5003;67697;50.750;-3.270;2023-12-14T02:52:08;10;10;
78408;PMS5003;67697;50.750;-3.270;2023-12-14T02:54:34;9;7;
78408;PMS5003;67697;50.750;-3.270;2023-12-14T02:57:00;10;9;
78408;PMS5003;67697;50.750;-3.270;2023-12-14T02:59:25;7;7;
78408;PMS5003;67697;50.750;-3.270;2023-12-14T03:01:50;10;10;
78408;PMS5003;67697;50.750;-3.270;2023-12-14T03:04:16;9;9;
78408;PMS5003;67697;50.750;-3.270;2023-12-14T03:06:42;7;7;
78408;PMS5003;67697;50.750;-3.270;2023-12-14T03:09:07;5;5;
78408;PMS5003;67697;50.750;-3.270;2023-12-14T03:11:33;7;5;
78408;PMS5003;67697;50.750;-3.270;2023-12-14T03:13:59;5;5;
78408;PMS5003;67697;50.750;-3.270;2023-12-14T03:16:25;5;5;
78408;PMS5003;67697;50.750;-3.270;2023-12-14T03:18:51;9;6;
78408;PMS5003;67697;50.750;-3.270;2023-12-14T03:21:16;5;5;
78408;PMS5003;67697;50.750;-3.270;2023-12-14T03:23:42;3;3;
78408;PMS5003;67697;50.750;-3.270;2023-12-14T03:26:08;3;3;
78408;PMS5003;67697;50.750;-3.270;2023-12-14T03:28:34;5;5;
78408;PMS5003;67697;50.750;-3.270;2023-12-14T03:31:00;7;6;
78408;PMS5003;67697;50.750;-3.270;2023-12-14T03:33:25;6;6;
78408;PMS5003;67697;50.750;-3.270;2023-12-14T03:35:51;5;5;
78408;PMS5003;67697;50.750;-3.270;2023-12-14T03:38:17;5;5;
78408;PMS5003;67697;50.750;-3.270;2023-12-14T03:40:43;7;6;
78408;PMS5003;67697;50.750;-3.270;2023-12-14T03:43:08;8;7;
78408;PMS5003;67697;50.750;-3.270;2023-12-14T03:45:34;8;5;
78408;PMS5003;67697;50.750;-3.270;2023-12-14T03:48:00;7;6;
78408;PMS5003;67697;50.750;-3.270;2023-12-14T03:50:26;12;7;
78408;PMS5003;67697;50.750;-3.270;2023-12-14T03:52:52;11;10;
78408;PMS5003;67697;50.750;-3.270;2023-12-14T03:55:18;7;7;
78408;PMS5003;67697;50.750;-3.270;2023-12-14T03:57:43;11;9;
78408;PMS5003;67697;50.750;-3.270;2023-12-14T04:00:09;11;8;
78408;PMS5003;67697;50.750;-3.270;2023-12-14T04:02:35;12;10;
78408;PMS5003;67697;50.750;-3.270;2023-12-14T04:05:00;9;9;
78408;PMS5003;67697;50.750;-3.270;2023-12-14T04:07:26;11;11;
78408;PMS5003;67697;50.750;-3.270;2023-12-14T04:09:52;7;6;
78408;PMS5003;67697;50.750;-3.270;2023-12-14T04:12:18;9;9;
78408;PMS5003;67697;50.750;-3.270;2023-12-14T04:14:43;7;6;
78408;PMS5003;67697;50.750;-3.270;2023-12-14T04:17:09;14;10;
78408;PMS5003;67697;50.750;-3.270;2023-12-14T04:19:35;12;11;
78408;PMS5003;67697;50.750;-3.270;2023-12-14T04:22:00;14;11;
78408;PMS5003;67697;50.750;-3.270;2023-12-14T04:24:26;7;6;
78408;PMS5003;67697;50.750;-3.270;2023-12-14T04:26:52;8;8;
78408;PMS5003;67697;50.750;-3.270;2023-12-14T04:29:17;8;7;
78408;PMS5003;67697;50.750;-3.270;2023-12-14T04:31:43;10;10;
78408;PMS5003;67697;50.750;-3.270;2023-12-14T04:34:09;14;10;
78408;PMS5003;67697;50.750;-3.270;2023-12-14T04:36:35;8;7;
78408;PMS5003;67697;50.750;-3.270;2023-12-14T04:39:00;6;6;
78408;PMS5003;67697;50.750;-3.270;2023-12-14T04:41:26;11;10;
78408;PMS5003;67697;50.750;-3.270;2023-12-14T04:43:52;7;7;
78408;PMS5003;67697;50.750;-3.270;2023-12-14T04:46:18;7;7;
78408;PMS5003;67697;50.750;-3.270;2023-12-14T04:48:44;6;6;
78408;PMS5003;67697;50.750;-3.270;2023-12-14T04:51:11;8;6;
78408;PMS5003;67697;50.750;-3.270;2023-12-14T04:53:35;6;6;
78408;PMS5003;67697;50.750;-3.270;2023-12-14T04:56:01;11;11;
78408;PMS5003;67697;50.750;-3.270;2023-12-14T04:58:26;8;7;
78408;PMS5003;67697;50.750;-3.270;2023-12-14T05:00:52;8;7;
78408;PMS5003;67697;50.750;-3.270;2023-12-14T05:03:18;8;7;
78408;PMS5003;67697;50.750;-3.270;2023-12-14T05:05:44;10;8;
78408;PMS5003;67697;50.750;-3.270;2023-12-14T05:08:10;7;7;
78408;PMS5003;67697;50.750;-3.270;2023-12-14T05:10:35;8;8;
78408;PMS5003;67697;50.750;-3.270;2023-12-14T05:13:01;9;6;
78408;PMS5003;67697;50.750;-3.270;2023-12-14T05:15:27;7;7;
78408;PMS5003;67697;50.750;-3.270;2023-12-14T05:17:53;7;6;
78408;PMS5003;67697;50.750;-3.270;2023-12-14T05:20:18;8;8;
78408;PMS5003;67697;50.750;-3.270;2023-12-14T05:22:44;8;8;
78408;PMS5003;67697;50.750;-3.270;2023-12-14T05:25:10;11;8;
78408;PMS5003;67697;50.750;-3.270;2023-12-14T05:27:35;12;11;
78408;PMS5003;67697;50.750;-3.270;2023-12-14T05:30:01;7;6;
78408;PMS5003;67697;50.750;-3.270;2023-12-14T05:32:27;13;11;
78408;PMS5003;67697;50.750;-3.270;2023-12-14T05:34:52;8;8;
78408;PMS5003;67697;50.750;-3.270;2023-12-14T05:37:18;11;8;
78408;PMS5003;67697;50.750;-3.270;2023-12-14T05:39:44;8;8;
78408;PMS5003;67697;50.750;-3.270;2023-12-14T05:42:09;7;7;
78408;PMS5003;67697;50.750;-3.270;2023-12-14T05:44:35;7;7;
78408;PMS5003;67697;50.750;-3.270;2023-12-14T05:47:00;8;7;
78408;PMS5003;67697;50.750;-3.270;2023-12-14T05:49:26;12;8;
78408;PMS5003;67697;50.750;-3.270;2023-12-14T05:51:52;8;8;
78408;PMS5003;67697;50.750;-3.270;2023-12-14T05:54:18;9;9;
78408;PMS5003;67697;50.750;-3.270;2023-12-14T05:56:44;11;10;
78408;PMS5003;67697;50.750;-3.270;2023-12-14T05:59:09;12;11;
78408;PMS5003;67697;50.750;-3.270;2023-12-14T06:01:35;7;7;
78408;PMS5003;67697;50.750;-3.270;2023-12-14T06:04:01;12;10;
78408;PMS5003;67697;50.750;-3.270;2023-12-14T06:06:27;11;11;
78408;PMS5003;67697;50.750;-3.270;2023-12-14T06:08:52;9;9;
78408;PMS5003;67697;50.750;-3.270;2023-12-14T06:11:18;9;8;
78408;PMS5003;67697;50.750;-3.270;2023-12-14T06:13:44;11;10;
78408;PMS5003;67697;50.750;-3.270;2023-12-14T06:16:10;8;8;
78408;PMS5003;67697;50.750;-3.270;2023-12-14T06:18:35;11;8;
78408;PMS5003;67697;50.750;-3.270;2023-12-14T06:21:01;4;4;
78408;PMS5003;67697;50.750;-3.270;2023-12-14T06:23:27;8;8;
78408;PMS5003;67697;50.750;-3.270;2023-12-14T06:25:54;12;12;
78408;PMS5003;67697;50.750;-3.270;2023-12-14T06:28:18;8;8;
78408;PMS5003;67697;50.750;-3.270;2023-12-14T06:30:44;7;7;
78408;PMS5003;67697;50.750;-3.270;2023-12-14T06:33:10;11;9;
78408;PMS5003;67697;50.750;-3.270;2023-12-14T06:35:36;12;12;
78408;PMS5003;67697;50.750;-3.270;2023-12-14T06:38:01;8;8;
78408;PMS5003;67697;50.750;-3.270;2023-12-14T06:40:28;13;11;
78408;PMS5003;67697;50.750;-3.270;2023-12-14T06:42:54;7;7;
78408;PMS5003;67697;50.750;-3.270;2023-12-14T06:45:19;7;4;
78408;PMS5003;67697;50.750;-3.270;2023-12-14T06:47:44;8;8;
78408;PMS5003;67697;50.750;-3.270;2023-12-14T06:50:10;6;6;
78408;PMS5003;67697;50.750;-3.270;2023-12-14T06:52:36;7;7;
78408;PMS5003;67697;50.750;-3.270;2023-12-14T06:55:02;8;8;
78408;PMS5003;67697;50.750;-3.270;2023-12-14T06:57:27;8;7;
78408;PMS5003;67697;50.750;-3.270;2023-12-14T06:59:53;6;6;
78408;PMS5003;67697;50.750;-3.270;2023-12-14T07:02:19;7;7;
78408;PMS5003;67697;50.750;-3.270;2023-12-14T07:04:44;9;8;
78408;PMS5003;67697;50.750;-3.270;2023-12-14T07:07:10;8;7;
78408;PMS5003;67697;50.750;-3.270;2023-12-14T07:09:36;9;6;
78408;PMS5003;67697;50.750;-3.270;2023-12-14T07:12:02;7;6;
78408;PMS5003;67697;50.750;-3.270;2023-12-14T07:14:27;4;4;
78408;PMS5003;67697;50.750;-3.270;2023-12-14T07:16:53;4;4;
78408;PMS5003;67697;50.750;-3.270;2023-12-14T07:19:19;6;4;
78408;PMS5003;67697;50.750;-3.270;2023-12-14T07:21:45;4;4;
78408;PMS5003;67697;50.750;-3.270;2023-12-14T07:24:10;2;2;
78408;PMS5003;67697;50.750;-3.270;2023-12-14T07:26:36;4;3;
78408;PMS5003;67697;50.750;-3.270;2023-12-14T07:29:02;4;2;
78408;PMS5003;67697;50.750;-3.270;2023-12-14T07:31:27;2;2;
78408;PMS5003;67697;50.750;-3.270;2023-12-14T07:33:54;1;1;
78408;PMS5003;67697;50.750;-3.270;2023-12-14T07:36:19;2;2;
78408;PMS5003;67697;50.750;-3.270;2023-12-14T07:38:45;2;2;
78408;PMS5003;67697;50.750;-3.270;2023-12-14T07:41:10;3;1;
78408;PMS5003;67697;50.750;-3.270;2023-12-14T07:43:36;2;2;
78408;PMS5003;67697;50.750;-3.270;2023-12-14T07:46:02;1;1;
78408;PMS5003;67697;50.750;-3.270;2023-12-14T07:48:27;1;1;
78408;PMS5003;67697;50.750;-3.270;2023-12-14T07:50:53;2;2;
78408;PMS5003;67697;50.750;-3.270;2023-12-14T07:53:19;1;1;
78408;PMS5003;67697;50.750;-3.270;2023-12-14T07:55:45;1;1;
78408;PMS5003;67697;50.750;-3.270;2023-12-14T07:58:10;1;1;
78408;PMS5003;67697;50.750;-3.270;2023-12-14T08:00:36;1;1;
78408;PMS5003;67697;50.750;-3.270;2023-12-14T08:03:02;1;1;
78408;PMS5003;67697;50.750;-3.270;2023-12-14T08:05:27;1;1;
78408;PMS5003;67697;50.750;-3.270;2023-12-14T08:07:54;1;1;
78408;PMS5003;67697;50.750;-3.270;2023-12-14T08:10:19;1;1;
78408;PMS5003;67697;50.750;-3.270;2023-12-14T08:12:45;3;1;
78408;PMS5003;67697;50.750;-3.270;2023-12-14T08:15:10;2;1;
78408;PMS5003;67697;50.750;-3.270;2023-12-14T08:17:36;3;1;
78408;PMS5003;67697;50.750;-3.270;2023-12-14T08:20:02;3;3;
78408;PMS5003;67697;50.750;-3.270;2023-12-14T08:22:28;2;2;
78408;PMS5003;67697;50.750;-3.270;2023-12-14T08:24:54;3;2;
78408;PMS5003;67697;50.750;-3.270;2023-12-14T08:27:19;6;2;
78408;PMS5003;67697;50.750;-3.270;2023-12-14T08:29:45;1;1;
78408;PMS5003;67697;50.750;-3.270;2023-12-14T08:32:11;2;2;
78408;PMS5003;67697;50.750;-3.270;2023-12-14T08:34:36;2;1;
78408;PMS5003;67697;50.750;-3.270;2023-12-14T08:37:02;0;0;
78408;PMS5003;67697;50.750;-3.270;2023-12-14T08:39:27;1;1;
78408;PMS5003;67697;50.750;-3.270;2023-12-14T08:41:53;2;1;
78408;PMS5003;67697;50.750;-3.270;2023-12-14T08:44:19;1;1;
78408;PMS5003;67697;50.750;-3.270;2023-12-14T08:46:46;0;0;
78408;PMS5003;67697;50.750;-3.270;2023-12-14T08:49:11;0;0;
78408;PMS5003;67697;50.750;-3.270;2023-12-14T08:51:36;1;1;
78408;PMS5003;67697;50.750;-3.270;2023-12-14T08:54:02;2;1;
78408;PMS5003;67697;50.750;-3.270;2023-12-14T08:56:27;1;0;
78408;PMS5003;67697;50.750;-3.270;2023-12-14T08:58:53;0;0;
78408;PMS5003;67697;50.750;-3.270;2023-12-14T09:01:19;0;0;
78408;PMS5003;67697;50.750;-3.270;2023-12-14T09:03:44;1;1;
78408;PMS5003;67697;50.750;-3.270;2023-12-14T09:06:10;3;2;
78408;PMS5003;67697;50.750;-3.270;2023-12-14T09:08:36;1;0;
78408;PMS5003;67697;50.750;-3.270;2023-12-14T09:11:01;1;1;
78408;PMS5003;67697;50.750;-3.270;2023-12-14T09:13:27;2;0;
78408;PMS5003;67697;50.750;-3.270;2023-12-14T09:15:53;2;1;
78408;PMS5003;67697;50.750;-3.270;2023-12-14T09:18:18;0;0;
78408;PMS5003;67697;50.750;-3.270;2023-12-14T09:20:44;0;0;
78408;PMS5003;67697;50.750;-3.270;2023-12-14T09:23:10;0;0;
78408;PMS5003;67697;50.750;-3.270;2023-12-14T09:25:35;0;0;
78408;PMS5003;67697;50.750;-3.270;2023-12-14T09:28:01;2;2;
78408;PMS5003;67697;50.750;-3.270;2023-12-14T09:30:27;0;0;
78408;PMS5003;67697;50.750;-3.270;2023-12-14T09:32:53;1;1;
78408;PMS5003;67697;50.750;-3.270;2023-12-14T09:35:18;2;1;
78408;PMS5003;67697;50.750;-3.270;2023-12-14T09:37:44;0;0;
78408;PMS5003;67697;50.750;-3.270;2023-12-14T09:40:10;0;0;
78408;PMS5003;67697;50.750;-3.270;2023-12-14T09:42:36;0;0;
78408;PMS5003;67697;50.750;-3.270;2023-12-14T09:45:01;1;1;
78408;PMS5003;67697;50.750;-3.270;2023-12-14T09:47:27;1;1;
78408;PMS5003;67697;50.750;-3.270;2023-12-14T09:49:53;0;0;
78408;PMS5003;67697;50.750;-3.270;2023-12-14T09:52:18;1;1;
78408;PMS5003;67697;50.750;-3.270;2023-12-14T09:54:44;1;1;
78408;PMS5003;67697;50.750;-3.270;2023-12-14T09:57:09;2;0;
78408;PMS5003;67697;50.750;-3.270;2023-12-14T09:59:35;1;1;
78408;PMS5003;67697;50.750;-3.270;2023-12-14T10:02:10;1;1;
78408;PMS5003;67697;50.750;-3.270;2023-12-14T10:04:27;1;1;
78408;PMS5003;67697;50.750;-3.270;2023-12-14T10:06:52;1;1;
78408;PMS5003;67697;50.750;-3.270;2023-12-14T10:09:22;1;1;
78408;PMS5003;67697;50.750;-3.270;2023-12-14T10:11:44;1;1;
78408;PMS5003;67697;50.750;-3.270;2023-12-14T10:14:18;1;1;
78408;PMS5003;67697;50.750;-3.270;2023-12-14T10:16:35;1;1;
78408;PMS5003;67697;50.750;-3.270;2023-12-14T10:19:01;0;0;
78408;PMS5003;67697;50.750;-3.270;2023-12-14T10:21:27;2;0;
78408;PMS5003;67697;50.750;-3.270;2023-12-14T10:23:52;1;1;
78408;PMS5003;67697;50.750;-3.270;2023-12-14T10:26:18;1;1;
78408;PMS5003;67697;50.750;-3.270;2023-12-14T10:28:43;1;1;
78408;PMS5003;67697;50.750;-3.270;2023-12-14T10:31:09;3;1;
78408;PMS5003;67697;50.750;-3.270;2023-12-14T10:33:35;3;2;
78408;PMS5003;67697;50.750;-3.270;2023-12-14T10:36:00;1;1;
78408;PMS5003;67697;50.750;-3.270;2023-12-14T10:38:26;2;2;
78408;PMS5003;67697;50.750;-3.270;2023-12-14T10:40:52;1;1;
78408;PMS5003;67697;50.750;-3.270;2023-12-14T10:43:17;1;1;
78408;PMS5003;67697;50.750;-3.270;2023-12-14T10:45:43;1;1;
78408;PMS5003;67697;50.750;-3.270;2023-12-14T10:48:09;3;2;
78408;PMS5003;67697;50.750;-3.270;2023-12-14T10:50:34;2;2;
78408;PMS5003;67697;50.750;-3.270;2023-12-14T10:53:00;2;2;
78408;PMS5003;67697;50.750;-3.270;2023-12-14T10:55:27;1;1;
78408;PMS5003;67697;50.750;-3.270;2023-12-14T10:57:51;1;1;
78408;PMS5003;67697;50.750;-3.270;2023-12-14T11:00:17;2;2;
78408;PMS5003;67697;50.750;-3.270;2023-12-14T11:02:45;1;1;
78408;PMS5003;67697;50.750;-3.270;2023-12-14T11:05:08;2;1;
78408;PMS5003;67697;50.750;-3.270;2023-12-14T11:09:59;1;1;
78408;PMS5003;67697;50.750;-3.270;2023-12-14T11:12:25;2;2;
78408;PMS5003;67697;50.750;-3.270;2023-12-14T11:14:50;3;2;
78408;PMS5003;67697;50.750;-3.270;2023-12-14T11:17:16;4;3;
78408;PMS5003;67697;50.750;-3.270;2023-12-14T11:19:42;5;5;
78408;PMS5003;67697;50.750;-3.270;2023-12-14T11:22:11;4;4;
78408;PMS5003;67697;50.750;-3.270;2023-12-14T11:24:34;5;4;
78408;PMS5003;67697;50.750;-3.270;2023-12-14T11:26:59;3;2;
78408;PMS5003;67697;50.750;-3.270;2023-12-14T11:29:24;4;2;
78408;PMS5003;67697;50.750;-3.270;2023-12-14T11:31:50;4;3;
78408;PMS5003;67697;50.750;-3.270;2023-12-14T11:34:15;4;4;
78408;PMS5003;67697;50.750;-3.270;2023-12-14T11:36:41;3;3;
78408;PMS5003;67697;50.750;-3.270;2023-12-14T11:39:07;3;3;
78408;PMS5003;67697;50.750;-3.270;2023-12-14T11:41:32;9;6;
78408;PMS5003;67697;50.750;-3.270;2023-12-14T11:43:58;3;3;
78408;PMS5003;67697;50.750;-3.270;2023-12-14T11:46:24;2;2;
78408;PMS5003;67697;50.750;-3.270;2023-12-14T11:48:49;4;4;
78408;PMS5003;67697;50.750;-3.270;2023-12-14T11:51:15;6;5;
78408;PMS5003;67697;50.750;-3.270;2023-12-14T11:53:40;3;3;
78408;PMS5003;67697;50.750;-3.270;2023-12-14T11:56:06;7;5;
78408;PMS5003;67697;50.750;-3.270;2023-12-14T11:58:32;7;6;
78408;PMS5003;67697;50.750;-3.270;2023-12-14T12:03:23;12;5;
78408;PMS5003;67697;50.750;-3.270;2023-12-14T12:05:49;9;9;
78408;PMS5003;67697;50.750;-3.270;2023-12-14T12:08:14;6;6;
78408;PMS5003;67697;50.750;-3.270;2023-12-14T12:10:40;6;5;
78408;PMS5003;67697;50.750;-3.270;2023-12-14T12:13:06;7;6;
78408;PMS5003;67697;50.750;-3.270;2023-12-14T12:15:31;9;7;
78408;PMS5003;67697;50.750;-3.270;2023-12-14T12:17:56;9;5;
78408;PMS5003;67697;50.750;-3.270;2023-12-14T12:20:22;7;5;
78408;PMS5003;67697;50.750;-3.270;2023-12-14T12:22:47;6;6;
78408;PMS5003;67697;50.750;-3.270;2023-12-14T12:25:13;5;5;
78408;PMS5003;67697;50.750;-3.270;2023-12-14T12:27:39;5;5;
78408;PMS5003;67697;50.750;-3.270;2023-12-14T12:30:05;4;2;
78408;PMS5003;67697;50.750;-3.270;2023-12-14T12:32:30;6;6;
78408;PMS5003;67697;50.750;-3.270;2023-12-14T12:34:55;5;5;
78408;PMS5003;67697;50.750;-3.270;2023-12-14T12:37:21;6;6;
78408;PMS5003;67697;50.750;-3.270;2023-12-14T12:39:46;11;10;
78408;PMS5003;67697;50.750;-3.270;2023-12-14T12:42:12;11;9;
78408;PMS5003;67697;50.750;-3.270;2023-12-14T12:44:38;5;5;
78408;PMS5003;67697;50.750;-3.270;2023-12-14T12:47:03;11;5;
78408;PMS5003;67697;50.750;-3.270;2023-12-14T12:49:30;8;6;
78408;PMS5003;67697;50.750;-3.270;2023-12-14T12:51:55;6;6;
78408;PMS5003;67697;50.750;-3.270;2023-12-14T12:54:20;7;6;
78408;PMS5003;67697;50.750;-3.270;2023-12-14T12:56:46;6;6;
78408;PMS5003;67697;50.750;-3.270;2023-12-14T12:59:12;2;2;
78408;PMS5003;67697;50.750;-3.270;2023-12-14T13:01:37;4;4;
78408;PMS5003;67697;50.750;-3.270;2023-12-14T13:04:03;6;5;
78408;PMS5003;67697;50.750;-3.270;2023-12-14T13:06:28;9;8;
78408;PMS5003;67697;50.750;-3.270;2023-12-14T13:08:59;4;4;
78408;PMS5003;67697;50.750;-3.270;2023-12-14T13:11:20;4;4;
78408;PMS5003;67697;50.750;-3.270;2023-12-14T13:13:45;6;4;
78408;PMS5003;67697;50.750;-3.270;2023-12-14T13:16:11;6;5;
78408;PMS5003;67697;50.750;-3.270;2023-12-14T13:18:37;5;4;
78408;PMS5003;67697;50.750;-3.270;2023-12-14T13:21:02;4;4;
78408;PMS5003;67697;50.750;-3.270;2023-12-14T13:23:28;5;5;
78408;PMS5003;67697;50.750;-3.270;2023-12-14T13:25:53;4;4;
78408;PMS5003;67697;50.750;-3.270;2023-12-14T13:28:20;7;4;
78408;PMS5003;67697;50.750;-3.270;2023-12-14T13:30:45;5;3;
78408;PMS5003;67697;50.750;-3.270;2023-12-14T13:33:11;5;4;
78408;PMS5003;67697;50.750;-3.270;2023-12-14T13:35:36;8;6;
78408;PMS5003;67697;50.750;-3.270;2023-12-14T13:38:02;4;4;
78408;PMS5003;67697;50.750;-3.270;2023-12-14T13:40:27;6;6;
78408;PMS5003;67697;50.750;-3.270;2023-12-14T13:42:53;8;5;
78408;PMS5003;67697;50.750;-3.270;2023-12-14T13:45:19;6;5;
78408;PMS5003;67697;50.750;-3.270;2023-12-14T13:47:44;3;3;
78408;PMS5003;67697;50.750;-3.270;2023-12-14T13:50:10;4;4;
78408;PMS5003;67697;50.750;-3.270;2023-12-14T13:52:36;4;4;
78408;PMS5003;67697;50.750;-3.270;2023-12-14T13:55:01;11;6;
78408;PMS5003;67697;50.750;-3.270;2023-12-14T13:57:27;3;3;
78408;PMS5003;67697;50.750;-3.270;2023-12-14T13:59:52;5;4;
78408;PMS5003;67697;50.750;-3.270;2023-12-14T14:02:18;4;3;
78408;PMS5003;67697;50.750;-3.270;2023-12-14T14:04:44;6;2;
78408;PMS5003;67697;50.750;-3.270;2023-12-14T14:07:09;6;2;
78408;PMS5003;67697;50.750;-3.270;2023-12-14T14:09:35;4;3;
78408;PMS5003;67697;50.750;-3.270;2023-12-14T14:12:01;3;3;
78408;PMS5003;67697;50.750;-3.270;2023-12-14T14:14:26;2;2;
78408;PMS5003;67697;50.750;-3.270;2023-12-14T14:16:52;4;2;
78408;PMS5003;67697;50.750;-3.270;2023-12-14T14:19:17;4;2;
78408;PMS5003;67697;50.750;-3.270;2023-12-14T14:21:43;6;4;
78408;PMS5003;67697;50.750;-3.270;2023-12-14T14:24:09;2;2;
78408;PMS5003;67697;50.750;-3.270;2023-12-14T14:26:34;4;4;
78408;PMS5003;67697;50.750;-3.270;2023-12-14T14:29:00;5;4;
78408;PMS5003;67697;50.750;-3.270;2023-12-14T14:31:26;1;1;
78408;PMS5003;67697;50.750;-3.270;2023-12-14T14:33:51;2;2;
78408;PMS5003;67697;50.750;-3.270;2023-12-14T14:36:17;3;3;
78408;PMS5003;67697;50.750;-3.270;2023-12-14T14:38:43;4;2;
78408;PMS5003;67697;50.750;-3.270;2023-12-14T14:41:08;3;3;
78408;PMS5003;67697;50.750;-3.270;2023-12-14T14:43:34;3;3;
78408;PMS5003;67697;50.750;-3.270;2023-12-14T14:46:00;2;2;
78408;PMS5003;67697;50.750;-3.270;2023-12-14T14:48:25;4;4;
78408;PMS5003;67697;50.750;-3.270;2023-12-14T14:50:51;3;3;
78408;PMS5003;67697;50.750;-3.270;2023-12-14T14:53:16;4;4;
78408;PMS5003;67697;50.750;-3.270;2023-12-14T14:55:42;2;2;
78408;PMS5003;67697;50.750;-3.270;2023-12-14T14:58:08;6;4;
78408;PMS5003;67697;50.750;-3.270;2023-12-14T15:00:33;6;6;
78408;PMS5003;67697;50.750;-3.270;2023-12-14T15:02:59;8;5;
78408;PMS5003;67697;50.750;-3.270;2023-12-14T15:05:25;10;8;
78408;PMS5003;67697;50.750;-3.270;2023-12-14T15:07:50;7;5;
78408;PMS5003;67697;50.750;-3.270;2023-12-14T15:10:16;10;8;
78408;PMS5003;67697;50.750;-3.270;2023-12-14T15:12:41;7;6;
78408;PMS5003;67697;50.750;-3.270;2023-12-14T15:15:07;5;4;
78408;PMS5003;67697;50.750;-3.270;2023-12-14T15:17:32;5;5;
78408;PMS5003;67697;50.750;-3.270;2023-12-14T15:19:58;4;3;
78408;PMS5003;67697;50.750;-3.270;2023-12-14T15:22:23;6;5;
78408;PMS5003;67697;50.750;-3.270;2023-12-14T15:24:49;8;6;
78408;PMS5003;67697;50.750;-3.270;2023-12-14T15:27:15;8;6;
78408;PMS5003;67697;50.750;-3.270;2023-12-14T15:29:40;4;4;
78408;PMS5003;67697;50.750;-3.270;2023-12-14T15:32:06;6;6;
78408;PMS5003;67697;50.750;-3.270;2023-12-14T15:34:32;7;7;
78408;PMS5003;67697;50.750;-3.270;2023-12-14T15:36:57;4;4;
78408;PMS5003;67697;50.750;-3.270;2023-12-14T15:39:23;2;2;
78408;PMS5003;67697;50.750;-3.270;2023-12-14T15:41:48;7;4;
78408;PMS5003;67697;50.750;-3.270;2023-12-14T15:44:14;3;2;
78408;PMS5003;67697;50.750;-3.270;2023-12-14T15:46:39;4;3;
78408;PMS5003;67697;50.750;-3.270;2023-12-14T15:49:05;5;5;
78408;PMS5003;67697;50.750;-3.270;2023-12-14T15:51:31;4;3;
78408;PMS5003;67697;50.750;-3.270;2023-12-14T15:53:56;6;6;
78408;PMS5003;67697;50.750;-3.270;2023-12-14T15:56:22;4;4;
78408;PMS5003;67697;50.750;-3.270;2023-12-14T15:58:48;6;6;
78408;PMS5003;67697;50.750;-3.270;2023-12-14T16:01:13;4;4;
78408;PMS5003;67697;50.750;-3.270;2023-12-14T16:03:39;5;4;
78408;PMS5003;67697;50.750;-3.270;2023-12-14T16:06:05;6;3;
78408;PMS5003;67697;50.750;-3.270;2023-12-14T16:08:30;4;4;
78408;PMS5003;67697;50.750;-3.270;2023-12-14T16:10:56;6;3;
78408;PMS5003;67697;50.750;-3.270;2023-12-14T16:13:21;6;5;
78408;PMS5003;67697;50.750;-3.270;2023-12-14T16:15:47;5;4;
78408;PMS5003;67697;50.750;-3.270;2023-12-14T16:18:13;4;3;
78408;PMS5003;67697;50.750;-3.270;2023-12-14T16:20:38;2;2;
78408;PMS5003;67697;50.750;-3.270;2023-12-14T16:23:04;2;2;
78408;PMS5003;67697;50.750;-3.270;2023-12-14T16:25:30;3;2;